Garland City, Arkansas
Current Conditions -  °F | °C
As of 4:53 PM on Tuesday 27 Jan 2015 (Local Time) from KTXK Reporting Station
Clear Clear  
Wind Chill: 71°   Ceiling: Unl
Heat Index: 71°   Visibility: 10mi
Dew Point: 34°   Wind: 3mph
Humidity: 26%   Direction: 60°ENE
Pressure: 30.11"   Gusts: NA
Location:  33.35°N, 93.75°W
Report Text: KTXK 272253Z 06003KT 10SM CLR 22/01 A3011 RMK AO2 SLP193 T02170011
Loading
Personal Weather Stations






























Interactive Weather Map New forecast layout! Learn more

10-Day Weather Forecast

Advertisements
Track Severe Weather on mobile